Time;durP1;ratioP1;P1;durP2;ratioP2;P2;SDS_P1;SDS_P2;PMS_P1;PMS_P2;Temp;Humidity;BMP_temperature;BMP_pressure;BME280_temperature;BME280_humidity;BME280_pressure;Samples;Min_cycle;Max_cycle;Signal;HPM_P1;HPM_P2
2022/05/21 00:00:23;;;;;;;20.00;10.45;;;;;;;11.51;90.16;101859.94;5050562;28;20063;-68
2022/05/21 00:02:49;;;;;;;22.65;11.32;;;;;;;11.48;90.20;101862.75;5051647;28;20043;-68
2022/05/21 00:05:16;;;;;;;22.88;11.50;;;;;;;11.44;90.65;101865.66;5049697;28;20902;-67
2022/05/21 00:07:43;;;;;;;18.92;11.50;;;;;;;11.50;90.35;101876.94;5053236;28;20032;-68
2022/05/21 00:10:09;;;;;;;19.73;11.45;;;;;;;11.38;91.15;101872.19;5054742;28;20044;-68
2022/05/21 00:12:35;;;;;;;20.85;11.93;;;;;;;11.38;90.96;101869.50;5054807;28;20151;-67
2022/05/21 00:15:02;;;;;;;24.60;11.85;;;;;;;11.40;90.41;101873.00;5053251;28;20102;-68
2022/05/21 00:17:27;;;;;;;25.98;12.82;;;;;;;11.35;90.82;101883.91;5052687;28;20081;-67
2022/05/21 00:19:53;;;;;;;22.55;12.85;;;;;;;11.38;90.77;101872.19;5054858;28;20400;-68
2022/05/21 00:22:18;;;;;;;26.77;13.55;;;;;;;11.35;90.83;101878.56;5039923;28;20041;-68
2022/05/21 00:24:44;;;;;;;23.13;12.52;;;;;;;11.41;90.62;101874.72;5035507;28;20471;-68
2022/05/21 00:27:09;;;;;;;24.23;14.05;;;;;;;11.33;90.42;101868.88;5034628;28;20120;-67
2022/05/21 00:29:35;;;;;;;26.15;12.88;;;;;;;11.41;90.32;101858.69;5032952;28;20418;-68
2022/05/21 00:32:02;;;;;;;27.08;14.43;;;;;;;11.46;90.31;101853.97;5034692;28;20036;-66
2022/05/21 00:34:28;;;;;;;24.00;14.82;;;;;;;11.48;90.34;101856.56;5035319;28;20098;-68
2022/05/21 00:36:53;;;;;;;23.77;14.23;;;;;;;11.50;89.95;101849.34;5034142;28;20033;-67
2022/05/21 00:39:19;;;;;;;27.35;16.08;;;;;;;11.55;89.94;101853.50;5034609;28;20440;-67
2022/05/21 00:41:44;;;;;;;28.95;14.93;;;;;;;11.66;90.12;101845.81;5034040;28;20043;-67
2022/05/21 00:44:10;;;;;;;30.02;14.70;;;;;;;11.69;89.56;101847.44;5032753;28;20046;-67
2022/05/21 00:46:42;;;;;;;25.17;15.40;;;;;;;11.70;89.35;101848.31;5034242;28;20099;-67
2022/05/21 00:49:13;;;;;;;31.27;16.15;;;;;;;11.65;89.38;101856.59;5033441;28;20055;-68
2022/05/21 00:51:52;;;;;;;27.42;16.35;;;;;;;11.71;89.41;101853.59;5033981;28;20783;-67
2022/05/21 00:54:22;;;;;;;27.25;15.43;;;;;;;11.70;88.61;101849.19;5030504;28;20226;-67
2022/05/21 00:56:55;;;;;;;31.60;15.57;;;;;;;11.73;88.56;101850.81;5034255;28;20090;-68
2022/05/21 01:02:08;;;;;;;26.67;15.48;;;;;;;11.73;89.16;101859.69;5030596;28;20095;-67
2022/05/21 01:04:34;;;;;;;23.70;15.32;;;;;;;11.77;88.38;101858.59;5032948;28;20041;-67
2022/05/21 01:07:03;;;;;;;25.88;15.68;;;;;;;11.81;88.55;101859.31;5031577;28;20118;-67
2022/05/21 01:09:29;;;;;;;26.52;14.88;;;;;;;11.84;88.48;101868.06;5032696;28;20048;-68
2022/05/21 01:11:55;;;;;;;23.73;14.13;;;;;;;11.81;88.64;101873.53;5047963;28;20040;-68
2022/05/21 01:14:22;;;;;;;23.27;14.38;;;;;;;11.85;88.50;101871.63;5053145;28;20286;-67
2022/05/21 01:16:49;;;;;;;23.65;14.18;;;;;;;11.89;88.63;101870.47;5053227;28;20081;-68
2022/05/21 01:19:14;;;;;;;23.75;13.07;;;;;;;11.89;88.02;101866.00;5052291;28;20109;-67
2022/05/21 01:21:40;;;;;;;22.65;12.68;;;;;;;11.96;88.13;101871.06;5044350;28;20041;-67
2022/05/21 01:24:08;;;;;;;22.67;12.23;;;;;;;11.94;87.66;101863.09;5031991;28;20047;-67
2022/05/21 01:26:35;;;;;;;23.50;12.50;;;;;;;11.97;87.78;101859.41;5032827;28;20033;-66
2022/05/21 01:29:11;;;;;;;21.75;12.75;;;;;;;11.98;87.11;101859.31;5033093;28;20827;-66
2022/05/21 01:31:37;;;;;;;28.27;12.38;;;;;;;11.98;87.42;101851.28;5033907;28;20152;-67
2022/05/21 01:34:03;;;;;;;25.02;11.85;;;;;;;12.03;87.52;101849.25;5028125;28;20033;-66
2022/05/21 01:36:28;;;;;;;24.38;13.38;;;;;;;12.01;87.47;101851.16;5015872;28;20038;-67
2022/05/21 01:38:54;;;;;;;24.02;12.90;;;;;;;12.05;87.17;101843.81;5012911;28;20949;-66
2022/05/21 01:41:20;;;;;;;24.60;12.98;;;;;;;12.07;87.21;101849.94;5012648;28;20033;-66
2022/05/21 01:46:29;;;;;;;27.40;13.88;;;;;;;12.05;87.46;101842.03;5013954;28;20033;-67
2022/05/21 01:48:55;;;;;;;26.75;13.25;;;;;;;12.10;87.50;101834.63;5013633;28;20041;-66
2022/05/21 01:51:20;;;;;;;21.02;12.68;;;;;;;12.06;87.12;101840.22;5012951;28;20045;-67
2022/05/21 01:53:46;;;;;;;23.13;13.13;;;;;;;12.04;87.00;101842.94;5012938;28;20037;-67
2022/05/21 01:56:14;;;;;;;32.30;14.23;;;;;;;12.07;86.98;101841.94;5011218;28;20087;-67
2022/05/21 01:58:40;;;;;;;25.98;13.85;;;;;;;12.08;87.34;101846.31;5011488;28;20697;-66
2022/05/21 02:01:07;;;;;;;22.33;12.57;;;;;;;12.06;87.55;101840.22;5011960;28;20742;-66
2022/05/21 02:03:33;;;;;;;27.58;12.50;;;;;;;12.07;87.20;101839.25;5013020;28;20041;-67
2022/05/21 02:05:59;;;;;;;25.90;13.30;;;;;;;12.13;87.37;101838.91;5013159;28;20071;-66
2022/05/21 02:08:25;;;;;;;21.30;13.48;;;;;;;12.07;87.80;101832.09;5011947;28;20034;-67
2022/05/21 02:10:51;;;;;;;24.70;14.10;;;;;;;12.08;87.22;101839.16;5023922;28;20017;-67
2022/05/21 02:13:20;;;;;;;30.33;14.05;;;;;;;12.06;87.18;101843.75;5051386;28;20509;-66
2022/05/21 02:15:46;;;;;;;25.92;12.73;;;;;;;12.11;87.58;101833.66;5052620;28;20102;-66
2022/05/21 02:18:13;;;;;;;23.10;12.90;;;;;;;12.14;87.21;101830.81;5052237;28;20803;-66
2022/05/21 02:20:39;;;;;;;27.40;14.68;;;;;;;12.10;86.98;101837.28;5050824;28;20118;-67
2022/05/21 02:23:07;;;;;;;27.33;12.93;;;;;;;12.18;87.28;101842.22;5031114;28;20458;-67
2022/05/21 02:25:33;;;;;;;25.70;13.77;;;;;;;12.22;87.30;101838.44;5032554;28;20073;-67
2022/05/21 02:27:58;;;;;;;23.55;13.73;;;;;;;12.25;87.25;101838.28;5032218;28;20457;-67
2022/05/21 02:30:24;;;;;;;24.08;13.93;;;;;;;12.21;87.57;101836.72;5031503;28;20102;-67
2022/05/21 02:32:49;;;;;;;26.95;12.80;;;;;;;12.25;86.89;101837.38;5033725;28;20037;-67
2022/05/21 02:35:15;;;;;;;24.20;12.90;;;;;;;12.25;87.31;101837.38;5031871;28;20810;-66
2022/05/21 02:40:25;;;;;;;24.25;13.85;;;;;;;12.34;87.26;101837.75;5032012;28;20118;-66
2022/05/21 02:42:51;;;;;;;28.55;14.50;;;;;;;12.32;87.65;101833.44;5032448;28;20033;-66
2022/05/21 02:45:23;;;;;;;29.80;14.30;;;;;;;12.25;87.88;101837.38;5031709;28;20049;-66
2022/05/21 02:47:49;;;;;;;24.88;13.88;;;;;;;12.31;87.97;101837.06;5033076;28;20131;-67
2022/05/21 02:50:18;;;;;;;24.42;14.02;;;;;;;12.36;87.79;101837.69;5031650;28;20067;-66
2022/05/21 02:52:44;;;;;;;24.73;14.05;;;;;;;12.40;87.49;101834.75;5032230;28;20075;-66
2022/05/21 02:55:12;;;;;;;29.38;15.40;;;;;;;12.39;87.79;101840.16;5031929;28;20048;-66
2022/05/21 02:57:38;;;;;;;26.38;15.35;;;;;;;12.38;87.65;101833.09;5031557;28;20090;-67
2022/05/21 03:00:09;;;;;;;28.35;13.63;;;;;;;12.39;87.59;101843.69;5031717;28;20037;-66
2022/05/21 03:02:34;;;;;;;26.92;15.07;;;;;;;12.43;88.07;101839.91;5032660;28;20045;-66
2022/05/21 03:05:02;;;;;;;27.98;13.55;;;;;;;12.44;88.04;101836.28;5031358;28;20067;-66
2022/05/21 03:07:27;;;;;;;27.15;16.17;;;;;;;12.39;87.80;101838.34;5014148;28;20045;-66
2022/05/21 03:12:59;;;;;;;27.77;14.13;;;;;;;12.43;87.62;101842.59;5000001;28;20512;-67
2022/05/21 03:15:29;;;;;;;24.75;13.48;;;;;;;12.48;87.96;101845.03;5009216;28;20102;-66
2022/05/21 03:17:55;;;;;;;25.73;14.57;;;;;;;12.53;88.01;101842.09;4993954;28;20118;-66
2022/05/21 03:20:22;;;;;;;25.67;13.75;;;;;;;12.47;87.99;101840.63;5011050;28;20041;-66
2022/05/21 03:22:48;;;;;;;23.98;13.60;;;;;;;12.47;87.29;101843.28;5030840;28;20065;-67
2022/05/21 03:25:14;;;;;;;28.95;14.63;;;;;;;12.46;87.94;101836.22;5031611;28;20790;-67
2022/05/21 03:27:41;;;;;;;27.08;13.68;;;;;;;12.44;87.63;101832.75;5031564;28;20033;-67
2022/05/21 03:30:09;;;;;;;21.35;13.50;;;;;;;12.42;88.03;101835.53;5030990;28;20285;-66
2022/05/21 03:32:35;;;;;;;23.98;14.88;;;;;;;12.39;88.34;101835.69;5030854;28;20048;-67
2022/05/21 03:35:00;;;;;;;25.67;14.50;;;;;;;12.41;88.35;101832.94;5028888;28;20072;-67
2022/05/21 03:37:25;;;;;;;27.88;13.40;;;;;;;12.39;88.05;101849.06;5031632;28;20048;-66
2022/05/21 03:39:51;;;;;;;27.20;14.07;;;;;;;12.44;87.95;101841.63;5031521;28;20032;-66
2022/05/21 03:42:17;;;;;;;31.98;14.38;;;;;;;12.49;88.01;101838.72;5031451;28;20960;-66
2022/05/21 03:44:43;;;;;;;24.45;13.50;;;;;;;12.45;87.74;101839.84;5036155;28;20240;-68
2022/05/21 03:47:10;;;;;;;26.02;13.35;;;;;;;12.49;88.46;101840.53;5034671;28;20067;-68
2022/05/21 03:49:36;;;;;;;25.25;13.23;;;;;;;12.53;87.80;101836.75;5035008;28;20083;-67
2022/05/21 03:52:01;;;;;;;26.90;13.30;;;;;;;12.49;88.15;101843.19;5034723;28;20064;-68
2022/05/21 03:54:27;;;;;;;25.15;13.32;;;;;;;12.51;87.77;101831.47;5033685;28;20132;-67
2022/05/21 03:56:54;;;;;;;23.30;12.88;;;;;;;12.47;88.08;101845.13;5034712;28;20056;-67
2022/05/21 03:59:20;;;;;;;33.28;13.68;;;;;;;12.46;87.80;101848.75;5034544;28;20068;-67
2022/05/21 04:01:46;;;;;;;23.13;12.43;;;;;;;12.37;88.10;101836.72;5033729;28;20045;-68
2022/05/21 04:04:11;;;;;;;24.92;13.32;;;;;;;12.31;88.33;101845.97;5034375;28;20041;-67
2022/05/21 04:06:37;;;;;;;28.30;13.07;;;;;;;12.40;88.14;101852.63;5035647;28;20044;-67
2022/05/21 04:09:03;;;;;;;22.67;13.25;;;;;;;12.38;87.90;101858.03;5035511;28;20045;-67
2022/05/21 04:11:28;;;;;;;21.77;11.75;;;;;;;12.38;88.60;101850.00;5045724;28;20117;-67
2022/05/21 04:13:54;;;;;;;29.02;12.57;;;;;;;12.52;88.16;101859.97;5054692;28;20040;-67
2022/05/21 04:16:20;;;;;;;23.40;12.70;;;;;;;12.61;87.90;101861.28;5055859;28;21310;-67
2022/05/21 04:18:45;;;;;;;27.02;13.25;;;;;;;12.64;87.32;101853.91;5056313;28;20074;-67
2022/05/21 04:21:11;;;;;;;26.48;12.60;;;;;;;12.68;87.19;101860.81;5050144;28;20025;-67
2022/05/21 04:23:36;;;;;;;24.05;12.80;;;;;;;12.72;87.15;101869.56;5034235;28;20045;-68
2022/05/21 04:26:03;;;;;;;29.02;13.48;;;;;;;12.74;87.31;101861.44;5033743;28;20299;-67
2022/05/21 04:28:29;;;;;;;28.27;13.10;;;;;;;12.72;87.44;101864.19;5014673;28;20390;-67
2022/05/21 04:30:55;;;;;;;25.75;12.52;;;;;;;12.75;87.12;101865.81;5012537;28;20029;-67
2022/05/21 04:33:20;;;;;;;27.08;12.50;;;;;;;12.74;87.28;101866.78;5013109;28;20056;-67
2022/05/21 04:38:32;;;;;;;22.50;12.18;;;;;;;12.80;87.08;101867.31;5014819;28;20056;-67
2022/05/21 04:40:58;;;;;;;22.63;12.20;;;;;;;12.88;87.30;101872.22;5014248;28;20095;-66
2022/05/21 04:43:24;;;;;;;25.85;11.70;;;;;;;12.75;87.60;101876.53;5013200;28;20821;-67
2022/05/21 04:45:49;;;;;;;25.92;12.52;;;;;;;12.81;87.81;101878.91;5015127;28;20057;-68
2022/05/21 04:48:15;;;;;;;31.50;11.85;;;;;;;12.84;87.72;101882.25;5013837;28;20041;-65
2022/05/21 04:50:40;;;;;;;26.42;12.52;;;;;;;12.87;87.55;101881.22;5014898;28;20041;-67
2022/05/21 04:53:06;;;;;;;22.58;11.82;;;;;;;12.98;86.75;101884.16;5014764;28;20864;-67
2022/05/21 04:55:32;;;;;;;18.08;11.85;;;;;;;12.91;87.19;101889.00;5014652;28;20108;-67
2022/05/21 04:57:57;;;;;;;26.77;12.93;;;;;;;13.03;87.39;101895.47;5015075;28;20568;-67
2022/05/21 05:00:22;;;;;;;31.45;12.68;;;;;;;13.04;86.84;101881.13;5014561;28;20118;-67
2022/05/21 05:02:50;;;;;;;23.23;12.07;;;;;;;13.04;87.14;101901.66;5015896;28;20042;-67
2022/05/21 05:05:15;;;;;;;20.58;12.68;;;;;;;13.04;87.37;101901.66;5012573;28;20045;-67
2022/05/21 05:07:41;;;;;;;21.05;12.52;;;;;;;13.04;87.02;101901.66;5015832;28;20115;-68
2022/05/21 05:10:08;;;;;;;21.23;12.02;;;;;;;13.05;87.01;101901.59;5014953;28;20044;-67
2022/05/21 05:12:33;;;;;;;29.05;12.68;;;;;;;13.04;86.71;101907.88;5049962;28;20950;-67
2022/05/21 05:15:00;;;;;;;26.40;12.32;;;;;;;13.12;86.21;101911.00;5035318;28;20138;-68
2022/05/21 05:17:27;;;;;;;27.30;11.63;;;;;;;13.12;86.74;101908.31;5033926;28;20036;-67
2022/05/21 05:19:54;;;;;;;26.08;12.73;;;;;;;13.21;86.22;101910.53;5032664;28;20048;-67
2022/05/21 05:22:23;;;;;;;27.42;12.07;;;;;;;13.24;86.47;101906.78;5033092;28;20113;-66
2022/05/21 05:24:49;;;;;;;28.20;12.80;;;;;;;13.33;86.43;101913.44;5034695;28;20468;-66
2022/05/21 05:27:16;;;;;;;21.75;11.25;;;;;;;13.20;86.13;101911.44;5033174;28;20510;-66
2022/05/21 05:29:41;;;;;;;22.52;11.45;;;;;;;13.35;85.75;101909.69;5033899;28;20083;-66
2022/05/21 05:32:07;;;;;;;21.83;12.23;;;;;;;13.48;85.31;101904.50;5031564;28;20044;-66
2022/05/21 05:34:34;;;;;;;26.83;11.40;;;;;;;13.37;85.06;101907.81;5031450;28;20718;-66
2022/05/21 05:37:01;;;;;;;23.40;10.63;;;;;;;13.60;85.18;101911.81;5031114;28;20045;-67
2022/05/21 05:39:26;;;;;;;23.77;10.65;;;;;;;13.44;84.80;101917.22;5047642;28;20063;-66
2022/05/21 05:41:52;;;;;;;21.20;10.05;;;;;;;13.56;84.57;101914.78;5031298;28;20117;-66
2022/05/21 05:44:18;;;;;;;20.83;9.80;;;;;;;13.76;84.62;101919.84;5021618;28;20045;-66
2022/05/21 05:46:44;;;;;;;23.63;10.02;;;;;;;13.81;82.92;101924.94;5027133;28;20037;-67
2022/05/21 05:49:10;;;;;;;17.40;9.57;;;;;;;13.83;83.32;101928.38;5032215;28;20109;-67
2022/05/21 05:51:36;;;;;;;26.25;9.60;;;;;;;13.84;82.87;101919.38;5027286;28;20553;-66
2022/05/21 05:54:01;;;;;;;22.10;9.27;;;;;;;13.93;82.60;101916.13;5025342;28;20076;-66
2022/05/21 05:56:27;;;;;;;25.98;9.45;;;;;;;13.95;82.36;101922.25;5034236;28;20064;-66
2022/05/21 06:01:37;;;;;;;23.08;8.57;;;;;;;14.07;80.96;101934.09;5022091;28;20091;-66
2022/05/21 06:04:03;;;;;;;17.02;8.18;;;;;;;14.34;80.82;101932.38;5018968;28;20705;-65
2022/05/21 06:06:28;;;;;;;19.52;7.85;;;;;;;14.39;81.07;101935.66;5017743;28;20146;-67
2022/05/21 06:08:55;;;;;;;23.30;8.15;;;;;;;14.38;80.26;101933.94;5034599;28;20045;-67
2022/05/21 06:11:20;;;;;;;20.50;7.78;;;;;;;14.30;81.06;101938.03;5026821;28;20044;-67
2022/05/21 06:13:46;;;;;;;20.60;7.68;;;;;;;14.67;80.23;101933.97;5022848;28;20051;-67
2022/05/21 06:16:12;;;;;;;17.10;6.78;;;;;;;14.42;79.36;101939.97;5023544;28;20037;-67
2022/05/21 06:18:38;;;;;;;18.48;7.10;;;;;;;14.56;79.89;101931.97;5028296;28;20862;-67
2022/05/21 06:21:05;;;;;;;22.50;8.52;;;;;;;14.60;79.44;101941.53;5027636;28;20037;-68
2022/05/21 06:23:34;;;;;;;23.10;7.30;;;;;;;14.89;79.37;101937.00;5025136;28;20037;-67
2022/05/21 06:26:00;;;;;;;18.42;7.15;;;;;;;14.96;78.93;101941.03;5024909;28;20039;-67
2022/05/21 06:28:26;;;;;;;20.85;6.53;;;;;;;14.74;79.68;101940.66;5023505;28;20920;-68
2022/05/21 06:30:52;;;;;;;17.83;6.30;;;;;;;14.80;78.79;101945.63;5025043;28;20112;-66
2022/05/21 06:33:28;;;;;;;18.55;5.72;;;;;;;14.87;78.15;101938.06;5026783;28;20513;-66
2022/05/21 06:36:11;;;;;;;18.35;6.32;;;;;;;14.90;77.85;101945.91;5029039;28;20560;-67
2022/05/21 06:38:39;;;;;;;15.80;5.88;;;;;;;14.97;78.39;101944.59;5025556;28;20045;-67
2022/05/21 06:41:04;;;;;;;17.70;5.95;;;;;;;15.15;77.27;101947.88;5029069;28;20035;-67
2022/05/21 06:43:31;;;;;;;15.93;5.32;;;;;;;15.48;76.44;101942.13;5024233;28;20045;-68
2022/05/21 06:45:58;;;;;;;11.25;5.45;;;;;;;15.41;75.89;101944.38;5026577;28;20056;-68
2022/05/21 06:48:23;;;;;;;18.13;6.90;;;;;;;15.72;75.14;101945.91;5026117;28;20040;-67
2022/05/21 06:50:51;;;;;;;9.57;4.88;;;;;;;15.52;74.69;101944.53;5029077;28;20172;-67
2022/05/21 06:53:17;;;;;;;11.82;5.57;;;;;;;15.66;75.12;101949.03;5051547;28;20465;-67
2022/05/21 06:55:42;;;;;;;16.67;5.40;;;;;;;15.58;75.46;101945.94;5051987;28;20037;-67
2022/05/21 06:58:08;;;;;;;11.38;5.00;;;;;;;15.93;74.19;101953.50;5051233;28;20075;-67
2022/05/21 07:00:34;;;;;;;19.85;4.53;;;;;;;15.77;73.62;101949.16;5052977;28;20174;-68
2022/05/21 07:02:59;;;;;;;18.88;4.50;;;;;;;15.90;73.30;101951.84;5051900;28;20117;-67
2022/05/21 07:08:20;;;;;;;12.05;4.35;;;;;;;16.61;71.15;101955.88;5051854;28;20032;-68
2022/05/21 07:10:45;;;;;;;9.68;4.47;;;;;;;16.61;71.35;101963.97;5053709;28;20115;-67
2022/05/21 07:13:11;;;;;;;10.57;4.85;;;;;;;16.48;70.69;101968.50;5051257;28;20783;-67
2022/05/21 07:15:37;;;;;;;12.98;4.45;;;;;;;16.46;71.62;101962.34;5051182;28;20096;-67
2022/05/21 07:18:03;;;;;;;18.55;4.95;;;;;;;16.34;72.41;101966.78;5053827;28;20024;-67
2022/05/21 07:20:30;;;;;;;13.10;5.07;;;;;;;15.93;72.24;101972.31;5054727;28;20038;-67
2022/05/21 07:22:56;;;;;;;21.30;4.88;;;;;;;15.71;72.73;101975.56;5032829;28;20544;-67
2022/05/21 07:25:26;;;;;;;13.93;5.68;;;;;;;15.65;73.86;101971.47;5038903;28;20075;-68
2022/05/21 07:27:52;;;;;;;9.80;4.03;;;;;;;15.79;72.74;101973.25;5029330;28;20681;-67
2022/05/21 07:30:18;;;;;;;13.55;3.95;;;;;;;16.47;70.90;101975.72;5035127;28;20868;-67
2022/05/21 07:32:44;;;;;;;14.57;4.50;;;;;;;16.91;71.74;101974.41;5031241;28;20040;-67
2022/05/21 07:35:14;;;;;;;17.30;4.40;;;;;;;16.62;70.70;101981.88;5035183;28;20044;-67
2022/05/21 07:37:40;;;;;;;19.98;4.82;;;;;;;17.45;66.97;101978.59;5035778;28;20540;-67
2022/05/21 07:40:11;;;;;;;12.45;3.83;;;;;;;17.88;65.42;101978.09;5033247;28;20045;-68
2022/05/21 07:42:37;;;;;;;12.50;4.53;;;;;;;17.72;65.16;101986.44;5030683;28;20037;-67
2022/05/21 07:45:04;;;;;;;8.35;3.25;;;;;;;17.80;66.36;101993.03;5031007;28;21137;-67
2022/05/21 07:47:30;;;;;;;11.55;3.60;;;;;;;18.92;63.75;101987.03;5030382;28;20028;-67
2022/05/21 07:49:58;;;;;;;8.57;3.05;;;;;;;19.14;61.29;101996.97;5032305;28;20843;-68
2022/05/21 07:52:25;;;;;;;9.10;3.45;;;;;;;18.18;64.02;101991.94;5032878;28;20037;-67
2022/05/21 07:54:50;;;;;;;10.05;2.85;;;;;;;18.88;61.91;101982.88;5032567;28;20029;-67
2022/05/21 07:57:16;;;;;;;7.95;2.60;;;;;;;19.54;60.66;101989.16;5031369;28;20044;-67
2022/05/21 07:59:41;;;;;;;13.48;2.92;;;;;;;18.21;62.77;101996.25;5032668;28;20071;-66
2022/05/21 08:02:12;;;;;;;9.05;3.17;;;;;;;18.81;60.98;101997.84;5031843;28;20134;-66
2022/05/21 08:04:40;;;;;;;14.93;3.42;;;;;;;19.38;60.36;101994.13;5031630;28;20032;-66
2022/05/21 08:07:05;;;;;;;8.45;2.97;;;;;;;18.68;61.01;102005.19;5011302;28;20853;-66
2022/05/21 08:09:31;;;;;;;16.38;3.30;;;;;;;19.30;58.60;102004.72;5043281;28;20095;-66
2022/05/21 08:11:56;;;;;;;10.75;2.80;;;;;;;19.11;59.66;102003.50;5036494;28;20044;-65
2022/05/21 08:14:23;;;;;;;9.82;3.20;;;;;;;20.25;58.46;101997.63;5047036;28;20040;-66
2022/05/21 08:16:49;;;;;;;5.95;2.33;;;;;;;19.71;58.47;102004.00;5038987;28;20052;-66
2022/05/21 08:19:15;;;;;;;8.63;3.15;;;;;;;19.50;58.07;102012.03;5047230;28;20033;-66
2022/05/21 08:21:40;;;;;;;9.98;2.45;;;;;;;19.60;56.07;102013.03;5038798;28;20045;-66
2022/05/21 08:26:57;;;;;;;5.88;2.25;;;;;;;19.88;58.27;101999.88;5034838;28;20055;-66
2022/05/21 08:29:34;;;;;;;7.00;2.78;;;;;;;20.59;54.69;101998.31;5041825;28;20477;-66
2022/05/21 08:32:01;;;;;;;9.00;3.25;;;;;;;20.26;57.75;101999.34;5031648;28;20132;-66
2022/05/21 08:34:27;;;;;;;9.98;2.80;;;;;;;19.95;57.29;102014.63;5014123;28;20036;-65
2022/05/21 08:36:53;;;;;;;5.05;2.55;;;;;;;19.13;57.54;102015.06;5032234;28;20059;-66
2022/05/21 08:39:19;;;;;;;7.75;2.60;;;;;;;19.12;59.01;102013.31;5031025;28;20837;-66
2022/05/21 08:41:54;;;;;;;6.13;2.72;;;;;;;20.17;57.12;102013.66;5031489;28;20048;-66
2022/05/21 08:44:35;;;;;;;12.70;2.72;;;;;;;19.98;54.98;102017.09;5028954;28;20056;-66
2022/05/21 08:47:35;;;;;;;14.20;3.08;;;;;;;19.04;57.87;102032.03;5024958;28;20399;-66
2022/05/21 08:50:05;;;;;;;6.43;2.50;;;;;;;18.45;58.72;102017.78;5027041;28;20664;-66
2022/05/21 08:52:58;;;;;;;4.10;2.33;;;;;;;19.34;57.25;102019.72;5019471;28;20116;-66
2022/05/21 08:55:30;;;;;;;11.20;2.65;;;;;;;19.90;57.61;102015.03;5028253;28;20060;-66
2022/05/21 08:58:08;;;;;;;6.45;2.75;;;;;;;19.77;54.84;102013.47;5028048;28;20039;-65
2022/05/21 09:00:42;;;;;;;5.25;3.00;;;;;;;19.25;55.86;102023.16;5029251;28;20044;-66
2022/05/21 09:03:09;;;;;;;6.60;2.20;;;;;;;19.54;55.13;102018.94;5037261;28;20835;-66
2022/05/21 09:05:37;;;;;;;5.68;2.50;;;;;;;19.55;56.05;102017.94;5038330;28;20868;-66
2022/05/21 09:08:33;;;;;;;5.80;2.92;;;;;;;19.72;56.80;102015.69;5045765;28;20111;-66
2022/05/21 09:11:06;;;;;;;11.88;3.28;;;;;;;19.55;56.61;102014.38;5026309;28;20147;-66
2022/05/21 09:14:02;;;;;;;11.38;3.00;;;;;;;19.34;57.63;102015.16;5039354;28;20161;-67
2022/05/21 09:19:11;;;;;;;13.63;2.38;;;;;;;19.87;54.60;102009.00;5028739;28;20098;-67
2022/05/21 09:21:46;;;;;;;9.55;2.08;;;;;;;19.96;56.96;102010.06;5034828;28;20549;-68
2022/05/21 09:24:32;;;;;;;10.32;2.53;;;;;;;20.95;52.97;102010.47;5047674;28;20040;-67
2022/05/21 09:26:58;;;;;;;7.25;2.50;;;;;;;20.37;52.88;102012.81;5042664;28;20127;-67
2022/05/21 09:29:29;;;;;;;11.48;2.83;;;;;;;20.14;54.45;102009.38;5030950;28;20037;-67
2022/05/21 09:31:56;;;;;;;2.92;2.20;;;;;;;20.10;54.77;102004.34;5044948;28;20060;-68
2022/05/21 09:34:32;;;;;;;6.68;2.80;;;;;;;19.66;55.96;102012.50;5034026;28;20091;-67
2022/05/21 09:36:59;;;;;;;12.65;3.10;;;;;;;19.10;57.72;102015.28;5042676;28;20781;-67
2022/05/21 09:39:30;;;;;;;6.72;2.22;;;;;;;20.07;54.17;102010.88;5040970;28;20049;-66
2022/05/21 09:45:22;;;;;;;9.95;3.00;;;;;;;21.24;55.14;102012.44;5026597;28;20032;-67
2022/05/21 09:48:08;;;;;;;9.98;3.15;;;;;;;20.94;53.00;102005.19;5035688;28;20052;-67
2022/05/21 09:50:46;;;;;;;14.30;3.75;;;;;;;20.74;53.21;102009.66;5035427;28;20125;-66
2022/05/21 09:53:34;;;;;;;10.05;2.80;;;;;;;20.60;52.93;102013.56;5035969;28;20044;-65
2022/05/21 09:56:19;;;;;;;9.60;2.95;;;;;;;19.69;54.20;102013.28;5029084;28;20692;-66
2022/05/21 09:58:48;;;;;;;5.00;2.25;;;;;;;19.53;55.78;102027.16;5021916;28;20045;-66
2022/05/21 10:01:36;;;;;;;12.82;3.15;;;;;;;19.31;55.07;102031.63;5029518;28;20064;-66
2022/05/21 10:04:30;;;;;;;9.27;2.38;;;;;;;20.67;56.64;102031.00;5031676;28;20034;-66
2022/05/21 10:13:24;;;;;;;8.68;2.97;;;;;;;18.86;56.66;102047.84;5024992;28;20034;-68
2022/05/21 10:16:31;;;;;;;12.90;3.08;;;;;;;18.58;57.79;102057.25;5026704;28;20033;-67
2022/05/21 10:19:13;;;;;;;5.72;2.80;;;;;;;17.88;58.41;102057.22;5026539;28;20152;-68
2022/05/21 10:21:48;;;;;;;10.43;3.30;;;;;;;18.15;58.10;102045.31;5028898;28;20047;-67
2022/05/21 10:24:38;;;;;;;6.18;3.15;;;;;;;19.46;56.58;102055.72;5030488;28;20124;-67
2022/05/21 10:27:17;;;;;;;5.97;2.63;;;;;;;19.70;53.86;102042.91;5021198;28;20041;-65
2022/05/21 10:30:00;;;;;;;12.43;3.50;;;;;;;19.95;53.52;102040.84;5026582;28;20053;-67
2022/05/21 10:33:03;;;;;;;10.35;2.75;;;;;;;20.21;52.59;102034.09;5031042;28;20040;-67
2022/05/21 10:35:45;;;;;;;;;;;;;;;20.52;51.15;102032.34;5024830;28;20044;-66
2022/05/21 10:38:33;;;;;;;5.60;2.92;;;;;;;20.13;53.30;102040.19;5035541;28;19921;-67
2022/05/21 10:41:08;;;;;;;8.18;2.95;;;;;;;20.04;52.41;102045.50;5041453;28;20052;-68
2022/05/21 10:43:42;;;;;;;6.47;2.85;;;;;;;20.86;51.38;102029.41;5031712;28;20048;-68
2022/05/21 10:46:35;;;;;;;7.90;2.92;;;;;;;21.13;48.58;102037.78;5028559;28;20086;-67
2022/05/21 10:49:06;;;;;;;;;;;;;;;20.35;50.09;102024.78;5029304;28;20057;-68
2022/05/21 10:51:59;;;;;;;7.65;2.90;;;;;;;20.55;50.89;102032.09;5027492;28;19932;-68
2022/05/21 10:55:09;;;;;;;13.88;3.42;;;;;;;20.69;51.48;102045.31;5031878;28;20155;-67
2022/05/21 10:57:49;;;;;;;10.65;3.42;;;;;;;21.05;53.00;102034.06;5014092;28;20060;-68
2022/05/21 11:00:21;;;;;;;5.03;2.47;;;;;;;21.12;50.34;102035.22;5005978;28;20520;-68
2022/05/21 11:02:56;;;;;;;4.85;2.22;;;;;;;21.50;48.95;102025.53;5013003;28;20061;-67
2022/05/21 11:05:49;;;;;;;7.35;3.30;;;;;;;21.34;49.18;102034.22;5026064;28;20354;-67
2022/05/21 11:08:52;;;;;;;8.45;2.95;;;;;;;21.35;48.49;102042.22;5008921;28;20041;-67
2022/05/21 11:11:27;;;;;;;;;;;;;;;20.37;50.31;102039.06;5006734;28;20929;-67
2022/05/21 11:14:17;;;;;;;6.28;2.95;;;;;;;20.55;49.51;102040.22;5006843;28;19920;-67
2022/05/21 11:16:47;;;;;;;6.93;2.85;;;;;;;20.81;50.35;102045.22;5010935;28;20041;-67
2022/05/21 11:19:29;;;;;;;8.40;3.22;;;;;;;21.09;49.68;102051.78;5021338;28;21064;-67
2022/05/21 11:22:02;;;;;;;5.13;3.53;;;;;;;20.78;50.82;102051.75;5011737;28;20065;-67
2022/05/21 11:24:36;;;;;;;10.98;4.03;;;;;;;20.06;53.36;102067.88;5023698;28;20063;-68
2022/05/21 11:27:34;;;;;;;8.20;3.63;;;;;;;19.71;54.87;102057.28;5008176;28;21237;-67
2022/05/21 11:30:09;;;;;;;12.73;4.10;;;;;;;20.25;54.39;102057.22;5045995;28;20044;-67
2022/05/21 11:38:42;;;;;;;9.85;3.45;;;;;;;19.47;54.12;102070.94;5037476;28;20040;-67
2022/05/21 11:41:27;;;;;;;7.40;3.90;;;;;;;20.01;53.91;102070.97;5036709;28;20040;-68
2022/05/21 11:47:05;;;;;;;7.00;3.65;;;;;;;19.99;53.75;102072.97;5023660;28;20036;-67
2022/05/21 11:49:49;;;;;;;7.47;3.30;;;;;;;20.57;54.31;102064.47;5032129;28;20470;-68
2022/05/21 11:52:26;;;;;;;9.68;3.85;;;;;;;21.17;50.66;102054.66;5024585;28;20037;-67
2022/05/21 11:54:58;;;;;;;5.13;3.03;;;;;;;21.51;51.17;102063.38;5042291;28;20036;-67
2022/05/21 11:57:37;;;;;;;5.43;3.45;;;;;;;20.75;49.40;102065.59;5027949;28;20070;-67
2022/05/21 12:00:28;;;;;;;5.93;3.10;;;;;;;21.07;49.21;102060.03;5016506;28;20583;-66
2022/05/21 12:02:53;;;;;;;10.27;3.38;;;;;;;20.75;51.19;102068.31;5027203;28;20750;-67
2022/05/21 12:05:31;;;;;;;10.77;3.45;;;;;;;21.61;49.96;102060.69;5031535;28;20029;-67
2022/05/21 12:08:13;;;;;;;8.13;3.67;;;;;;;21.84;50.39;102061.28;5048447;28;20041;-66
2022/05/21 12:11:06;;;;;;;6.70;3.50;;;;;;;21.78;50.47;102051.84;5023131;28;20032;-66
2022/05/21 12:13:34;;;;;;;10.00;2.95;;;;;;;21.96;49.25;102060.19;5041142;28;20799;-66